METAR EFET 210150Z AUTO 15004KT 9999 BKN008 M08/M10 Q1002=
METAR EFHA 210150Z AUTO 16006KT 9999 -SHSN OVC021 M02/M03 Q1009=
METAR EFHK 210150Z 15006KT 9999 FEW008 BKN019 M01/M02 Q1012 NOSIG=
METAR EFIV 210150Z AUTO VRB01KT 9999 -SN SCT022 OVC036 M17/M20 Q1006=
METAR EFJO 210150Z AUTO 17007KT 9999 -SN OVC028 M03/M05 Q1011=
METAR EFJY 210150Z AUTO 19005KT 150V220 9999 -SHSN OVC007 M02/M03 Q1009=
METAR EFKE 210150Z AUTO 19008KT 9999 -SHSN OVC004 M03/M03 Q1006=
METAR EFKI 210150Z AUTO 19008KT 160V220 9999 OVC004 M02/M02 Q1008=
METAR EFKK 210150Z AUTO 19008KT 9999 OVC007 00/M01 Q1006=
METAR EFKS 210150Z AUTO 10004KT 9999 BKN006 OVC019 M06/M07 Q1006=
METAR EFKT 210150Z AUTO 14006KT 9999 OVC005 M09/M10 Q1004=
METAR EFKU 210150Z AUTO 19008KT 7000 -SHSN FEW007 OVC031 M02/M03 Q1010=
METAR EFLA 210150Z AUTO 20005KT 9999 OVC009/// M02/M03 Q1011=
METAR EFLP 210150Z AUTO 22003KT 180V250 9999 OVC018 M03/M05 Q1013=
METAR EFMA 210150Z AUTO 19012KT 9999 OVC001 M01/M01 Q1008=
METAR EFMI 210150Z AUTO 18003KT 9999 OVC018 M03/M05 Q1011=
METAR EFOU 210150Z AUTO 30002KT 4200 -SN OVC005 M02/M02 Q1007 REFZRA=
METAR EFPO 210150Z AUTO 16005KT 9000 -RA OVC003 00/M00 Q1008 REFZRA=
METAR EFRO 210150Z AUTO 13005KT 2400 -FZRA OVC001 M05/M06 Q1004 REFZDZ=
METAR EFSA 210150Z AUTO 19004KT 9999 FEW020 M03/M05 Q1012=
METAR EFSI 210150Z AUTO 16007KT 9999 -FZRA OVC011 M00/M01 Q1007=
METAR EFTP 210150Z AUTO 18007KT 9999 OVC009 M01/M03 Q1009=
METAR EFTU 210150Z AUTO 18007KT 140V200 4000 -SN OVC001 M00/M00 Q1009 REFZRA REFZDZ=
METAR EFUT 210150Z AUTO 19003KT 9999 OVC015 M02/M04 Q1012=
METAR EFVA 210150Z AUTO 19009KT 9999 OVC003 M00/M01 Q1006=
ILHF 210210Z AUTO 13005KT 9999 OVC018 M00/M02 Q1012=
ILIK 210210Z AUTO 16007KT 8000 SG BKN004 OVC019 M01/M02 Q1010=
ILKA 210210Z AUTO 18008KT 9999 SG BKN019 00/M01 Q1007=
ILKM 210210Z AUTO VRB01KT 5000 SG OVC002 M08/M09 Q1005=
ILPR 210210Z AUTO 18003KT 9999 OVC017 M01/M03 Q1013=
ILPU 210210Z AUTO 17005KT 130V200 5000 -SHSN BKN003 BKN005 M01/M02 Q1006=
ILQA 210210Z AUTO 15005KT 130V190 9999 BKN004 OVC011 M08/M10 Q1006=
ILQB 210210Z AUTO 10006KT 9999 SG OVC049 M18/M20 Q1006=
ILQC 210210Z AUTO 16005KT 9999 FEW008 M08/M10 Q1002=
ILQD 210210Z AUTO /////KT 9999 -SHSN BKN047 M19/M21 Q////=
ILQE 210210Z AUTO 16003KT 130V210 1200 BR OVC001 M06/M07 Q1004=
ILQF 210210Z AUTO 18009KT 9999 OVC005 M03/M03 Q1005=
ILQG 210210Z AUTO VRB02KT 9999 -SHSN BKN033 OVC041 M21/M24 Q1006=
ILQH 210210Z AUTO 19010KT 1800 -SN OVC006 M02/M03 Q1006=
ILQI 210210Z AUTO 13005KT 080V180 //// // BKN003 BKN050 M09/M10 Q1001=
ILQJ 210210Z AUTO 17012KT 6000 -SN FEW004 SCT006 BKN009 M02/M03 Q1005=
ILQK 210210Z AUTO 14009KT 0150 -SN ////// M10/M11 Q0999=
ILQL 210210Z AUTO 23002KT 4300 -SN ////// M02/M02 Q1006=
ILQM 210210Z AUTO 14006KT 9999 BKN007 M11/M12 Q////=
ILQN 210210Z AUTO 12006KT 090V150 7000 -SHSN FEW006 BKN021 M07/M09 Q0998=
ILQO 210210Z AUTO 14003KT 070V230 8000 BKN003 BKN005 OVC009 M11/M12 Q1005=
ILQP 210210Z AUTO 19008KT 9999 ////// M02/M02 Q1006=
ILQQ 210210Z AUTO 18006KT 150V220 9999 OVC007 M03/M04 Q1005=
ILQR 210200Z AUTO VRB02KT 7000 -SN BKN002 OVC007 M05/M06 Q1005=
ILQS 210210Z AUTO VRB03KT 9999 -SN OVC002 M03/M03 Q1007=
ILQT 210210Z AUTO 15010KT 9999 -SHSN NSC M09/M11 Q1001=
ILQU 210210Z AUTO 16004KT 1500 -SHSN VV010 M24/M27 Q1006=
ILQV 210210Z AUTO 12003KT 030V200 4900 -SN SCT010 BKN013 OVC018 M13/M14 Q1005=
ILQX 210210Z AUTO VRB01KT 2300 -SN OVC004 M02/M02 Q1006=
ILQY 210210Z AUTO 17005KT 2200 -SN OVC004 M01/M02 Q1007=
ILRU 210210Z AUTO 17004KT 130V200 3400 -SHSN OVC003 M03/M03 Q1005=
ILWA 210210Z AUTO 19005KT 160V230 9999 OVC022 M01/M02 Q1013=
ILWD 210210Z AUTO /////KT //// // OVC015 ///// Q////=
ILWE 210210Z AUTO 13005KT 100V160 2200 -SN OVC021 M12/M13 Q1003=
ILWF 210210Z AUTO 18004KT 140V200 9999 -SHSN OVC006 M03/M04 Q////=
ILWG 210210Z AUTO /////KT 9999 -SHSN OVC006 M02/M03 Q1009=
ILXA 210210Z AUTO /////KT 5000 -SN OVC005 M01/M02 Q1007=
ILXC 210200Z AUTO 20006KT 150V240 9999 SG OVC020 M02/M04 Q1011=
ILXD 210210Z AUTO /////KT 9999 -SHSN OVC022 M03/M05 Q1012=
ILXE 210210Z AUTO 19006KT 160V220 2100 BR OVC000 M02/M02 Q1008=
ILXF 210210Z AUTO 18015KT //// // OVC004 M00/M00 Q1008=
ILXG 210210Z AUTO 17022KT 9999 OVC002 M01/M01 Q1007=
ILXI 210210Z AUTO 19006KT 160V220 9999 FEW021 OVC026 M04/M05 Q1011=
ILXJ 210210Z AUTO VRB04KT 9999 OVC003 M02/M02 Q1007=
ILXK 210210Z AUTO 19004KT 150V240 9999 BKN004 BKN006 M03/M03 Q1008=
ILXL 210210Z AUTO /////KT 9999 -SHSN FEW008 OVC011 //////CB M01/M01 Q1007=
ILXM 210210Z AUTO /////KT 9999 FZUP OVC006 M02/M03 Q////=
ILXN 210210Z AUTO 17007KT 110V230 7000 -SHSN BKN001 BKN003 //////CB M00/M01 Q1007=
ILXO 210200Z AUTO 18009KT 150V230 9999 SG FEW007 BKN009 OVC013 00/M01 Q1006=
ILXP 210210Z AUTO 18013KT 4000 BR VV001 M00/M00 Q1007=
ILXQ 210210Z AUTO /////KT 9999 OVC011 M01/M03 Q////=
ILXR 210210Z AUTO 18005KT 130V230 9000 -SHSN BKN003 OVC005 M03/M03 Q1009=
ILXS 210210Z AUTO 17005KT 130V220 9000 OVC003 M02/M02 Q1008=
ILXT 210210Z AUTO 20010KT 9999 OVC005 M01/M02 Q1006=
ILXU 210210Z AUTO /////KT 9999 OVC020 M03/M06 Q1012=
ILXV 210210Z AUTO 18003KT 120V230 9999 OVC004 M01/M02 Q1008=
ILXW 210210Z AUTO 18005KT 130V230 3600 -SN OVC006 M01/M01 Q1007=
ILXX 210210Z AUTO 19011KT 160V220 9999 OVC004 M01/M01 Q1006=
ILXY 210200Z AUTO 18006KT 130V210 9999 -FZRASN SCT007 BKN009 OVC033 M02/M03 Q1010=
ILXZ 210210Z AUTO 20006KT 9999 OVC018 M02/M05 Q////=
ILYL 210210Z AUTO 17005KT 140V210 2700 -FZRASN FEW006 BKN018 BKN022 M01/M01 Q1007=
ILZA 210210Z AUTO 15011KT 9999 OVC020 M00/M02 Q1012=
ILZB 210210Z AUTO 20010KT 170V230 9999 OVC001 M01/M01 Q1008=
ILZC 210210Z AUTO /////KT 9999 OVC017 M03/M05 Q1012=
ILZD 210210Z AUTO 20005KT 140V240 9999 OVC018 M00/M02 Q1012=
ILZE 210210Z AUTO 18004KT 140V240 9999 OVC020 M00/M02 Q1012=
ILZF 210210Z AUTO 15004KT 110V200 9999 OVC007 M01/M01 Q1011=
ILZG 210210Z AUTO /////KT 9999 OVC012 M01/M02 Q1011=
ILZH 210210Z AUTO /////KT 9999 BKN010 OVC022 M01/M02 Q1009=
ILZI 210210Z AUTO 18018KT 9999 OVC008 M00/M02 Q////=
ILZJ 210210Z AUTO 19008KT 130V220 7000 -SN SCT006 BKN008 OVC018 M01/M02 Q1010=
ILZK 210210Z AUTO 18011KT 150V210 9999 OVC007 M00/M01 Q1008=
ILZL 210210Z AUTO 18008KT 140V210 8000 -FZRASN OVC008 M01/M02 Q1010=
ILZM 210210Z AUTO /////KT 9999 OVC012 M01/M02 Q1011=
ILZO 210210Z AUTO 18008KT 9999 OVC022 M02/M02 Q1013=
ILZP 210210Z AUTO 16008KT 130V200 9999 -RA OVC003 00/M00 Q1008=
ILZQ 210210Z AUTO 17004KT 140V210 9999 OVC014 M01/M03 Q1011=
ILZR 210210Z AUTO 16005KT 110V220 3800 -SNRA OVC002 00/00 Q1009=
ILZS 210210Z AUTO 21008KT 170V280 9999 -SN OVC004 M01/M01 Q1012=
ILZT 210210Z AUTO 17012KT 2700 -SN OVC002 M01/M01 Q1011=
ILZU 210210Z AUTO 21011KT 9999 OVC017 00/M00 Q1010=
ILZV 210210Z AUTO 19004KT 140V220 9999 BKN015 M01/M03 Q1012=
ILZW 210210Z AUTO 17008KT 9999 OVC020 M01/M02 Q1013=
ILZX 210210Z AUTO 19005KT 150V220 9999 FEW011 OVC020 M00/M02 Q1012=
ILZY 210210Z AUTO 19018KT 9999 OVC005 M00/M01 Q1008=
ILZZ 210210Z AUTO /////KT 9999 OVC011 M02/M03 Q1011=